sensor_id;sensor_type;location;lat;lon;timestamp;temperature;humidity
14699;DHT22;7439;50.804;4.602;2023-05-31T00:01:49;12.50;99.90
14699;DHT22;7439;50.804;4.602;2023-05-31T00:04:16;12.50;99.90
14699;DHT22;7439;50.804;4.602;2023-05-31T00:06:44;12.50;99.90
14699;DHT22;7439;50.804;4.602;2023-05-31T00:09:11;12.40;99.90
14699;DHT22;7439;50.804;4.602;2023-05-31T00:11:38;12.40;99.90
14699;DHT22;7439;50.804;4.602;2023-05-31T00:14:07;12.30;99.90
14699;DHT22;7439;50.804;4.602;2023-05-31T00:16:34;12.30;99.90
14699;DHT22;7439;50.804;4.602;2023-05-31T00:19:01;12.30;99.90
14699;DHT22;7439;50.804;4.602;2023-05-31T00:21:31;12.30;99.90
14699;DHT22;7439;50.804;4.602;2023-05-31T00:23:58;12.20;99.90
14699;DHT22;7439;50.804;4.602;2023-05-31T00:26:26;12.20;99.90
14699;DHT22;7439;50.804;4.602;2023-05-31T00:28:53;12.10;99.90
14699;DHT22;7439;50.804;4.602;2023-05-31T00:31:21;12.10;99.90
14699;DHT22;7439;50.804;4.602;2023-05-31T00:33:49;12.00;99.90
14699;DHT22;7439;50.804;4.602;2023-05-31T00:36:16;12.00;99.90
14699;DHT22;7439;50.804;4.602;2023-05-31T00:38:43;11.90;99.90
14699;DHT22;7439;50.804;4.602;2023-05-31T00:41:11;11.90;99.90
14699;DHT22;7439;50.804;4.602;2023-05-31T00:43:38;11.90;99.90
14699;DHT22;7439;50.804;4.602;2023-05-31T00:46:05;11.90;99.90
14699;DHT22;7439;50.804;4.602;2023-05-31T00:48:34;11.80;99.90
14699;DHT22;7439;50.804;4.602;2023-05-31T00:51:03;11.80;99.90
14699;DHT22;7439;50.804;4.602;2023-05-31T00:53:30;11.80;99.90
14699;DHT22;7439;50.804;4.602;2023-05-31T00:55:59;11.70;99.90
14699;DHT22;7439;50.804;4.602;2023-05-31T00:58:28;11.70;99.90
14699;DHT22;7439;50.804;4.602;2023-05-31T01:00:56;11.70;99.90
14699;DHT22;7439;50.804;4.602;2023-05-31T01:03:23;11.60;99.90
14699;DHT22;7439;50.804;4.602;2023-05-31T01:05:52;11.60;99.90
14699;DHT22;7439;50.804;4.602;2023-05-31T01:08:19;11.50;99.90
14699;DHT22;7439;50.804;4.602;2023-05-31T01:10:47;11.40;99.90
14699;DHT22;7439;50.804;4.602;2023-05-31T01:13:23;11.40;99.90
14699;DHT22;7439;50.804;4.602;2023-05-31T01:15:56;11.30;99.90
14699;DHT22;7439;50.804;4.602;2023-05-31T01:18:27;11.30;1.00
14699;DHT22;7439;50.804;4.602;2023-05-31T01:21:01;11.20;1.00
14699;DHT22;7439;50.804;4.602;2023-05-31T01:23:35;11.10;1.00
14699;DHT22;7439;50.804;4.602;2023-05-31T01:26:37;11.00;1.00
14699;DHT22;7439;50.804;4.602;2023-05-31T01:29:10;10.90;1.00
14699;DHT22;7439;50.804;4.602;2023-05-31T01:31:40;10.90;1.00
14699;DHT22;7439;50.804;4.602;2023-05-31T01:34:08;10.90;1.00
14699;DHT22;7439;50.804;4.602;2023-05-31T01:36:36;10.80;1.00
14699;DHT22;7439;50.804;4.602;2023-05-31T01:39:03;10.80;1.00
14699;DHT22;7439;50.804;4.602;2023-05-31T01:41:35;10.70;1.00
14699;DHT22;7439;50.804;4.602;2023-05-31T01:44:05;10.70;1.00
14699;DHT22;7439;50.804;4.602;2023-05-31T01:46:33;10.70;1.00
14699;DHT22;7439;50.804;4.602;2023-05-31T01:49:01;10.60;1.00
14699;DHT22;7439;50.804;4.602;2023-05-31T01:51:29;10.70;1.00
14699;DHT22;7439;50.804;4.602;2023-05-31T01:53:58;10.70;1.00
14699;DHT22;7439;50.804;4.602;2023-05-31T01:56:26;10.60;1.00
14699;DHT22;7439;50.804;4.602;2023-05-31T01:58:54;10.70;1.00
14699;DHT22;7439;50.804;4.602;2023-05-31T02:01:24;10.60;1.00
14699;DHT22;7439;50.804;4.602;2023-05-31T02:03:52;10.50;1.00
14699;DHT22;7439;50.804;4.602;2023-05-31T02:06:19;10.50;1.00
14699;DHT22;7439;50.804;4.602;2023-05-31T02:08:47;10.50;13.70
14699;DHT22;7439;50.804;4.602;2023-05-31T02:11:14;10.40;1.00
14699;DHT22;7439;50.804;4.602;2023-05-31T02:13:41;10.50;18.60
14699;DHT22;7439;50.804;4.602;2023-05-31T02:16:08;10.50;1.00
14699;DHT22;7439;50.804;4.602;2023-05-31T02:18:37;10.50;1.00
14699;DHT22;7439;50.804;4.602;2023-05-31T02:21:04;10.40;75.00
14699;DHT22;7439;50.804;4.602;2023-05-31T02:23:31;10.30;54.00
14699;DHT22;7439;50.804;4.602;2023-05-31T02:25:59;10.30;99.90
14699;DHT22;7439;50.804;4.602;2023-05-31T02:28:26;10.20;99.90
14699;DHT22;7439;50.804;4.602;2023-05-31T02:30:54;10.20;99.90
14699;DHT22;7439;50.804;4.602;2023-05-31T02:33:22;10.10;99.90
14699;DHT22;7439;50.804;4.602;2023-05-31T02:35:51;10.10;99.90
14699;DHT22;7439;50.804;4.602;2023-05-31T02:38:19;10.00;99.90
14699;DHT22;7439;50.804;4.602;2023-05-31T02:40:46;10.00;99.90
14699;DHT22;7439;50.804;4.602;2023-05-31T02:43:14;10.00;99.90
14699;DHT22;7439;50.804;4.602;2023-05-31T02:45:42;9.90;99.90
14699;DHT22;7439;50.804;4.602;2023-05-31T02:48:09;9.80;99.90
14699;DHT22;7439;50.804;4.602;2023-05-31T02:50:36;9.80;1.00
14699;DHT22;7439;50.804;4.602;2023-05-31T02:53:05;9.80;99.90
14699;DHT22;7439;50.804;4.602;2023-05-31T02:55:32;9.80;1.00
14699;DHT22;7439;50.804;4.602;2023-05-31T02:57:59;9.80;1.00
14699;DHT22;7439;50.804;4.602;2023-05-31T03:00:27;9.70;1.00
14699;DHT22;7439;50.804;4.602;2023-05-31T03:02:54;9.60;1.00
14699;DHT22;7439;50.804;4.602;2023-05-31T03:05:22;9.60;1.00
14699;DHT22;7439;50.804;4.602;2023-05-31T03:07:50;9.60;1.00
14699;DHT22;7439;50.804;4.602;2023-05-31T03:10:18;9.50;1.00
14699;DHT22;7439;50.804;4.602;2023-05-31T03:12:45;9.40;1.00
14699;DHT22;7439;50.804;4.602;2023-05-31T03:15:12;9.30;1.00
14699;DHT22;7439;50.804;4.602;2023-05-31T03:17:40;9.30;1.00
14699;DHT22;7439;50.804;4.602;2023-05-31T03:20:08;9.40;1.00
14699;DHT22;7439;50.804;4.602;2023-05-31T03:22:35;9.40;1.00
14699;DHT22;7439;50.804;4.602;2023-05-31T03:25:03;9.40;1.00
14699;DHT22;7439;50.804;4.602;2023-05-31T03:27:31;9.30;1.00
14699;DHT22;7439;50.804;4.602;2023-05-31T03:29:59;9.20;1.00
14699;DHT22;7439;50.804;4.602;2023-05-31T03:32:26;9.20;1.00
14699;DHT22;7439;50.804;4.602;2023-05-31T03:34:54;9.10;22.90
14699;DHT22;7439;50.804;4.602;2023-05-31T03:37:21;9.10;91.70
14699;DHT22;7439;50.804;4.602;2023-05-31T03:39:48;9.00;99.90
14699;DHT22;7439;50.804;4.602;2023-05-31T03:42:15;9.00;99.90
14699;DHT22;7439;50.804;4.602;2023-05-31T03:44:44;9.00;99.90
14699;DHT22;7439;50.804;4.602;2023-05-31T03:47:11;9.00;99.90
14699;DHT22;7439;50.804;4.602;2023-05-31T03:49:38;9.10;99.90
14699;DHT22;7439;50.804;4.602;2023-05-31T03:52:06;9.00;99.90
14699;DHT22;7439;50.804;4.602;2023-05-31T03:54:35;9.00;99.90
14699;DHT22;7439;50.804;4.602;2023-05-31T03:57:03;9.00;99.90
14699;DHT22;7439;50.804;4.602;2023-05-31T03:59:31;9.00;99.90
14699;DHT22;7439;50.804;4.602;2023-05-31T04:01:59;9.00;99.90
14699;DHT22;7439;50.804;4.602;2023-05-31T04:04:27;9.00;99.90
14699;DHT22;7439;50.804;4.602;2023-05-31T04:06:54;8.90;99.90
14699;DHT22;7439;50.804;4.602;2023-05-31T04:09:21;8.90;1.00
14699;DHT22;7439;50.804;4.602;2023-05-31T04:11:49;8.90;1.00
14699;DHT22;7439;50.804;4.602;2023-05-31T04:14:16;8.90;1.00
14699;DHT22;7439;50.804;4.602;2023-05-31T04:16:43;8.90;1.00
14699;DHT22;7439;50.804;4.602;2023-05-31T04:19:13;8.90;1.00
14699;DHT22;7439;50.804;4.602;2023-05-31T04:21:40;8.90;1.00
14699;DHT22;7439;50.804;4.602;2023-05-31T04:24:07;8.90;1.00
14699;DHT22;7439;50.804;4.602;2023-05-31T04:26:34;9.00;1.00
14699;DHT22;7439;50.804;4.602;2023-05-31T04:29:03;9.00;1.00
14699;DHT22;7439;50.804;4.602;2023-05-31T04:31:31;9.10;29.20
14699;DHT22;7439;50.804;4.602;2023-05-31T04:34:01;9.10;99.90
14699;DHT22;7439;50.804;4.602;2023-05-31T04:36:32;9.20;99.90
14699;DHT22;7439;50.804;4.602;2023-05-31T04:39:01;9.20;99.90
14699;DHT22;7439;50.804;4.602;2023-05-31T04:41:31;9.30;99.90
14699;DHT22;7439;50.804;4.602;2023-05-31T04:43:58;9.40;99.90
14699;DHT22;7439;50.804;4.602;2023-05-31T04:46:26;9.40;99.90
14699;DHT22;7439;50.804;4.602;2023-05-31T04:48:53;9.50;99.90
14699;DHT22;7439;50.804;4.602;2023-05-31T04:51:21;9.70;99.90
14699;DHT22;7439;50.804;4.602;2023-05-31T04:53:50;9.70;99.90
14699;DHT22;7439;50.804;4.602;2023-05-31T04:56:17;9.80;99.90
14699;DHT22;7439;50.804;4.602;2023-05-31T04:58:44;10.00;99.90
14699;DHT22;7439;50.804;4.602;2023-05-31T05:01:11;10.10;99.90
14699;DHT22;7439;50.804;4.602;2023-05-31T05:03:41;10.20;99.90
14699;DHT22;7439;50.804;4.602;2023-05-31T05:06:12;10.40;1.00
14699;DHT22;7439;50.804;4.602;2023-05-31T05:08:41;10.50;1.00
14699;DHT22;7439;50.804;4.602;2023-05-31T05:11:10;10.70;1.00
14699;DHT22;7439;50.804;4.602;2023-05-31T05:13:38;10.90;99.90
14699;DHT22;7439;50.804;4.602;2023-05-31T05:16:05;11.00;99.90
14699;DHT22;7439;50.804;4.602;2023-05-31T05:18:33;11.20;99.90
14699;DHT22;7439;50.804;4.602;2023-05-31T05:21:00;11.30;1.00
14699;DHT22;7439;50.804;4.602;2023-05-31T05:23:27;11.50;1.00
14699;DHT22;7439;50.804;4.602;2023-05-31T05:25:54;11.60;1.00
14699;DHT22;7439;50.804;4.602;2023-05-31T05:28:23;11.80;1.00
14699;DHT22;7439;50.804;4.602;2023-05-31T05:30:50;11.90;1.00
14699;DHT22;7439;50.804;4.602;2023-05-31T05:33:19;12.10;99.90
14699;DHT22;7439;50.804;4.602;2023-05-31T05:35:46;12.20;99.90
14699;DHT22;7439;50.804;4.602;2023-05-31T05:38:13;12.40;99.90
14699;DHT22;7439;50.804;4.602;2023-05-31T05:40:40;12.50;99.90
14699;DHT22;7439;50.804;4.602;2023-05-31T05:43:07;12.50;49.40
14699;DHT22;7439;50.804;4.602;2023-05-31T05:45:36;12.60;14.10
14699;DHT22;7439;50.804;4.602;2023-05-31T05:48:04;12.70;1.00
14699;DHT22;7439;50.804;4.602;2023-05-31T05:50:31;12.80;1.00
14699;DHT22;7439;50.804;4.602;2023-05-31T05:52:58;12.90;1.00
14699;DHT22;7439;50.804;4.602;2023-05-31T05:55:25;12.90;1.00
14699;DHT22;7439;50.804;4.602;2023-05-31T05:57:52;13.00;1.00
14699;DHT22;7439;50.804;4.602;2023-05-31T06:00:20;13.20;1.00
14699;DHT22;7439;50.804;4.602;2023-05-31T06:02:51;13.30;1.00
14699;DHT22;7439;50.804;4.602;2023-05-31T06:05:18;13.30;1.00
14699;DHT22;7439;50.804;4.602;2023-05-31T06:07:51;13.40;1.00
14699;DHT22;7439;50.804;4.602;2023-05-31T06:10:18;13.50;99.90
14699;DHT22;7439;50.804;4.602;2023-05-31T06:12:45;13.60;1.00
14699;DHT22;7439;50.804;4.602;2023-05-31T06:15:12;13.60;99.90
14699;DHT22;7439;50.804;4.602;2023-05-31T06:17:41;13.80;99.90
14699;DHT22;7439;50.804;4.602;2023-05-31T06:20:10;13.90;99.90
14699;DHT22;7439;50.804;4.602;2023-05-31T06:22:37;14.10;99.90
14699;DHT22;7439;50.804;4.602;2023-05-31T06:25:05;14.20;99.90
14699;DHT22;7439;50.804;4.602;2023-05-31T06:27:33;14.30;99.90
14699;DHT22;7439;50.804;4.602;2023-05-31T06:30:01;14.40;99.90
14699;DHT22;7439;50.804;4.602;2023-05-31T06:32:28;14.50;99.90
14699;DHT22;7439;50.804;4.602;2023-05-31T06:34:56;14.70;99.90
14699;DHT22;7439;50.804;4.602;2023-05-31T06:37:24;14.80;99.90
14699;DHT22;7439;50.804;4.602;2023-05-31T06:39:53;14.90;99.90
14699;DHT22;7439;50.804;4.602;2023-05-31T06:42:20;14.90;99.90
14699;DHT22;7439;50.804;4.602;2023-05-31T06:44:47;14.90;99.90
14699;DHT22;7439;50.804;4.602;2023-05-31T06:47:14;15.10;99.90
14699;DHT22;7439;50.804;4.602;2023-05-31T06:49:41;15.20;99.90
14699;DHT22;7439;50.804;4.602;2023-05-31T06:52:09;15.40;99.90
14699;DHT22;7439;50.804;4.602;2023-05-31T06:54:41;15.50;99.90
14699;DHT22;7439;50.804;4.602;2023-05-31T06:57:09;15.60;99.90
14699;DHT22;7439;50.804;4.602;2023-05-31T06:59:36;15.70;99.90
14699;DHT22;7439;50.804;4.602;2023-05-31T07:02:04;15.80;99.90
14699;DHT22;7439;50.804;4.602;2023-05-31T07:04:31;15.90;99.10
14699;DHT22;7439;50.804;4.602;2023-05-31T07:06:59;16.00;95.20
14699;DHT22;7439;50.804;4.602;2023-05-31T07:09:26;16.10;71.90
14699;DHT22;7439;50.804;4.602;2023-05-31T07:11:55;16.10;56.50
14699;DHT22;7439;50.804;4.602;2023-05-31T07:14:22;16.30;56.10
14699;DHT22;7439;50.804;4.602;2023-05-31T07:16:49;16.40;75.70
14699;DHT22;7439;50.804;4.602;2023-05-31T07:19:16;16.50;71.40
14699;DHT22;7439;50.804;4.602;2023-05-31T07:21:44;16.70;57.30
14699;DHT22;7439;50.804;4.602;2023-05-31T07:24:11;17.00;86.40
14699;DHT22;7439;50.804;4.602;2023-05-31T07:26:38;17.20;27.20
14699;DHT22;7439;50.804;4.602;2023-05-31T07:29:07;17.30;9.50
14699;DHT22;7439;50.804;4.602;2023-05-31T07:31:34;17.40;14.30
14699;DHT22;7439;50.804;4.602;2023-05-31T07:34:01;17.50;1.00
14699;DHT22;7439;50.804;4.602;2023-05-31T07:36:28;17.60;1.00
14699;DHT22;7439;50.804;4.602;2023-05-31T07:38:55;17.70;1.00
14699;DHT22;7439;50.804;4.602;2023-05-31T07:41:22;17.70;1.00
14699;DHT22;7439;50.804;4.602;2023-05-31T07:43:51;17.80;1.00
14699;DHT22;7439;50.804;4.602;2023-05-31T07:46:22;17.90;1.00
14699;DHT22;7439;50.804;4.602;2023-05-31T07:48:49;18.00;1.00
14699;DHT22;7439;50.804;4.602;2023-05-31T07:51:16;18.20;1.00
14699;DHT22;7439;50.804;4.602;2023-05-31T07:53:43;18.30;1.00
14699;DHT22;7439;50.804;4.602;2023-05-31T07:56:11;18.40;1.00
14699;DHT22;7439;50.804;4.602;2023-05-31T07:58:38;18.60;1.00
14699;DHT22;7439;50.804;4.602;2023-05-31T08:01:05;18.70;1.00
14699;DHT22;7439;50.804;4.602;2023-05-31T08:03:34;18.80;1.00
14699;DHT22;7439;50.804;4.602;2023-05-31T08:06:01;19.00;1.00
14699;DHT22;7439;50.804;4.602;2023-05-31T08:08:28;19.10;1.00
14699;DHT22;7439;50.804;4.602;2023-05-31T08:10:58;19.20;1.00
14699;DHT22;7439;50.804;4.602;2023-05-31T08:13:26;19.40;1.00
14699;DHT22;7439;50.804;4.602;2023-05-31T08:15:54;19.50;1.00
14699;DHT22;7439;50.804;4.602;2023-05-31T08:18:22;19.70;1.00
14699;DHT22;7439;50.804;4.602;2023-05-31T08:20:50;20.00;1.00
14699;DHT22;7439;50.804;4.602;2023-05-31T08:23:17;20.10;1.00
14699;DHT22;7439;50.804;4.602;2023-05-31T08:25:45;20.30;1.00
14699;DHT22;7439;50.804;4.602;2023-05-31T08:28:12;20.60;1.00
14699;DHT22;7439;50.804;4.602;2023-05-31T08:30:39;20.70;1.00
14699;DHT22;7439;50.804;4.602;2023-05-31T08:33:07;20.70;1.00
14699;DHT22;7439;50.804;4.602;2023-05-31T08:35:34;20.90;1.00
14699;DHT22;7439;50.804;4.602;2023-05-31T08:38:02;21.10;1.00
14699;DHT22;7439;50.804;4.602;2023-05-31T08:40:29;21.30;1.00
14699;DHT22;7439;50.804;4.602;2023-05-31T08:43:00;21.40;1.00
14699;DHT22;7439;50.804;4.602;2023-05-31T08:45:31;21.60;1.00
14699;DHT22;7439;50.804;4.602;2023-05-31T08:48:06;21.50;1.00
14699;DHT22;7439;50.804;4.602;2023-05-31T08:50:34;21.50;1.00
14699;DHT22;7439;50.804;4.602;2023-05-31T08:53:06;21.70;1.00
14699;DHT22;7439;50.804;4.602;2023-05-31T08:55:35;21.90;1.00
14699;DHT22;7439;50.804;4.602;2023-05-31T08:58:04;22.00;1.00
14699;DHT22;7439;50.804;4.602;2023-05-31T09:00:32;22.10;1.00
14699;DHT22;7439;50.804;4.602;2023-05-31T09:03:03;22.20;1.00
14699;DHT22;7439;50.804;4.602;2023-05-31T09:05:32;22.40;1.00
14699;DHT22;7439;50.804;4.602;2023-05-31T09:08:00;22.90;1.00
14699;DHT22;7439;50.804;4.602;2023-05-31T09:10:29;23.20;1.00
14699;DHT22;7439;50.804;4.602;2023-05-31T09:12:56;23.70;1.00
14699;DHT22;7439;50.804;4.602;2023-05-31T09:15:25;24.30;1.00
14699;DHT22;7439;50.804;4.602;2023-05-31T09:17:55;24.50;1.00
14699;DHT22;7439;50.804;4.602;2023-05-31T09:20:30;24.70;1.00
14699;DHT22;7439;50.804;4.602;2023-05-31T09:23:02;25.10;1.00
14699;DHT22;7439;50.804;4.602;2023-05-31T09:25:44;25.60;1.00
14699;DHT22;7439;50.804;4.602;2023-05-31T09:28:12;25.80;1.00
14699;DHT22;7439;50.804;4.602;2023-05-31T09:30:40;25.90;1.00
14699;DHT22;7439;50.804;4.602;2023-05-31T09:33:08;25.90;1.00
14699;DHT22;7439;50.804;4.602;2023-05-31T09:35:36;25.90;1.00
14699;DHT22;7439;50.804;4.602;2023-05-31T09:38:06;26.10;1.00
14699;DHT22;7439;50.804;4.602;2023-05-31T09:40:34;26.50;1.00
14699;DHT22;7439;50.804;4.602;2023-05-31T09:43:02;26.80;1.00
14699;DHT22;7439;50.804;4.602;2023-05-31T09:45:30;27.30;1.00
14699;DHT22;7439;50.804;4.602;2023-05-31T09:47:57;27.50;1.00
14699;DHT22;7439;50.804;4.602;2023-05-31T09:50:25;27.80;1.00
14699;DHT22;7439;50.804;4.602;2023-05-31T09:52:56;28.00;1.00
14699;DHT22;7439;50.804;4.602;2023-05-31T09:55:25;28.10;1.00
14699;DHT22;7439;50.804;4.602;2023-05-31T09:58:06;28.60;1.00
14699;DHT22;7439;50.804;4.602;2023-05-31T10:00:33;28.90;1.00
14699;DHT22;7439;50.804;4.602;2023-05-31T10:03:01;28.80;1.00
14699;DHT22;7439;50.804;4.602;2023-05-31T10:05:29;28.60;1.00
14699;DHT22;7439;50.804;4.602;2023-05-31T10:07:57;28.80;1.00
14699;DHT22;7439;50.804;4.602;2023-05-31T10:10:24;28.80;1.00
14699;DHT22;7439;50.804;4.602;2023-05-31T10:12:55;28.70;1.00
14699;DHT22;7439;50.804;4.602;2023-05-31T10:15:26;28.40;1.00
14699;DHT22;7439;50.804;4.602;2023-05-31T10:17:59;28.30;1.00
14699;DHT22;7439;50.804;4.602;2023-05-31T10:20:31;28.60;1.00
14699;DHT22;7439;50.804;4.602;2023-05-31T10:23:01;28.80;1.00
14699;DHT22;7439;50.804;4.602;2023-05-31T10:25:34;28.50;1.00
14699;DHT22;7439;50.804;4.602;2023-05-31T10:28:09;28.60;1.00
14699;DHT22;7439;50.804;4.602;2023-05-31T10:30:40;28.70;1.00
14699;DHT22;7439;50.804;4.602;2023-05-31T10:33:11;29.20;1.00
14699;DHT22;7439;50.804;4.602;2023-05-31T10:35:38;29.40;1.00
14699;DHT22;7439;50.804;4.602;2023-05-31T10:38:07;29.50;1.00
14699;DHT22;7439;50.804;4.602;2023-05-31T10:40:39;30.20;1.00
14699;DHT22;7439;50.804;4.602;2023-05-31T10:43:14;30.30;1.00
14699;DHT22;7439;50.804;4.602;2023-05-31T10:45:47;30.30;1.00
14699;DHT22;7439;50.804;4.602;2023-05-31T10:48:20;30.40;1.00
14699;DHT22;7439;50.804;4.602;2023-05-31T10:50:54;31.00;1.00
14699;DHT22;7439;50.804;4.602;2023-05-31T10:53:22;30.80;1.00
14699;DHT22;7439;50.804;4.602;2023-05-31T10:55:49;30.10;1.00
14699;DHT22;7439;50.804;4.602;2023-05-31T10:58:28;30.20;1.00
14699;DHT22;7439;50.804;4.602;2023-05-31T11:00:58;30.10;1.00
14699;DHT22;7439;50.804;4.602;2023-05-31T11:03:29;29.90;1.00
14699;DHT22;7439;50.804;4.602;2023-05-31T11:05:58;30.50;1.00
14699;DHT22;7439;50.804;4.602;2023-05-31T11:08:26;30.70;1.00
14699;DHT22;7439;50.804;4.602;2023-05-31T11:11:26;30.70;1.00
14699;DHT22;7439;50.804;4.602;2023-05-31T11:13:58;30.40;1.00
14699;DHT22;7439;50.804;4.602;2023-05-31T11:16:28;29.80;1.00
14699;DHT22;7439;50.804;4.602;2023-05-31T11:19:03;29.90;1.00
14699;DHT22;7439;50.804;4.602;2023-05-31T11:21:48;30.30;1.00
14699;DHT22;7439;50.804;4.602;2023-05-31T11:24:29;30.30;1.00
14699;DHT22;7439;50.804;4.602;2023-05-31T11:26:58;30.30;1.00
14699;DHT22;7439;50.804;4.602;2023-05-31T11:29:55;31.20;1.00
14699;DHT22;7439;50.804;4.602;2023-05-31T11:32:56;31.00;1.00
14699;DHT22;7439;50.804;4.602;2023-05-31T11:35:24;30.40;1.00
14699;DHT22;7439;50.804;4.602;2023-05-31T11:38:02;30.60;1.00
14699;DHT22;7439;50.804;4.602;2023-05-31T11:40:30;31.20;1.00
14699;DHT22;7439;50.804;4.602;2023-05-31T11:43:07;31.60;1.00
14699;DHT22;7439;50.804;4.602;2023-05-31T11:45:35;32.10;1.00
14699;DHT22;7439;50.804;4.602;2023-05-31T11:48:29;32.10;1.00
14699;DHT22;7439;50.804;4.602;2023-05-31T11:50:57;31.90;1.00
14699;DHT22;7439;50.804;4.602;2023-05-31T11:53:26;32.00;1.00
14699;DHT22;7439;50.804;4.602;2023-05-31T11:55:54;31.50;1.00
14699;DHT22;7439;50.804;4.602;2023-05-31T11:58:25;31.00;1.00
14699;DHT22;7439;50.804;4.602;2023-05-31T12:00:57;31.70;1.00
14699;DHT22;7439;50.804;4.602;2023-05-31T12:03:25;32.40;1.00
14699;DHT22;7439;50.804;4.602;2023-05-31T12:05:57;32.60;1.00
14699;DHT22;7439;50.804;4.602;2023-05-31T12:08:25;32.30;1.00
14699;DHT22;7439;50.804;4.602;2023-05-31T12:11:01;32.50;1.00
14699;DHT22;7439;50.804;4.602;2023-05-31T12:13:29;32.90;1.00
14699;DHT22;7439;50.804;4.602;2023-05-31T12:15:56;32.90;1.00
14699;DHT22;7439;50.804;4.602;2023-05-31T12:18:25;32.50;1.00
14699;DHT22;7439;50.804;4.602;2023-05-31T12:20:52;32.70;1.00
14699;DHT22;7439;50.804;4.602;2023-05-31T12:23:20;33.10;1.00
14699;DHT22;7439;50.804;4.602;2023-05-31T12:25:48;33.40;1.00
14699;DHT22;7439;50.804;4.602;2023-05-31T12:28:19;33.00;1.00
14699;DHT22;7439;50.804;4.602;2023-05-31T12:30:48;32.60;1.00
14699;DHT22;7439;50.804;4.602;2023-05-31T12:33:17;31.90;1.00
14699;DHT22;7439;50.804;4.602;2023-05-31T12:35:46;31.50;1.00
14699;DHT22;7439;50.804;4.602;2023-05-31T12:38:14;31.80;1.00
14699;DHT22;7439;50.804;4.602;2023-05-31T12:40:42;32.10;1.00
14699;DHT22;7439;50.804;4.602;2023-05-31T12:43:11;32.20;1.00
14699;DHT22;7439;50.804;4.602;2023-05-31T12:45:40;32.20;1.00
14699;DHT22;7439;50.804;4.602;2023-05-31T12:48:08;31.60;1.00
14699;DHT22;7439;50.804;4.602;2023-05-31T12:50:37;32.00;1.00
14699;DHT22;7439;50.804;4.602;2023-05-31T12:53:11;31.70;1.00
14699;DHT22;7439;50.804;4.602;2023-05-31T12:55:38;31.90;1.00
14699;DHT22;7439;50.804;4.602;2023-05-31T12:58:05;32.30;1.00
14699;DHT22;7439;50.804;4.602;2023-05-31T13:00:33;32.70;1.00
14699;DHT22;7439;50.804;4.602;2023-05-31T13:03:00;32.90;1.00
14699;DHT22;7439;50.804;4.602;2023-05-31T13:05:28;32.70;1.00
14699;DHT22;7439;50.804;4.602;2023-05-31T13:07:55;33.00;1.00
14699;DHT22;7439;50.804;4.602;2023-05-31T13:10:24;32.90;1.00
14699;DHT22;7439;50.804;4.602;2023-05-31T13:12:51;32.90;1.00
14699;DHT22;7439;50.804;4.602;2023-05-31T13:15:18;32.30;1.00
14699;DHT22;7439;50.804;4.602;2023-05-31T13:17:46;31.90;1.00
14699;DHT22;7439;50.804;4.602;2023-05-31T13:20:13;32.10;1.00
14699;DHT22;7439;50.804;4.602;2023-05-31T13:22:41;32.70;1.00
14699;DHT22;7439;50.804;4.602;2023-05-31T13:25:09;32.00;1.00
14699;DHT22;7439;50.804;4.602;2023-05-31T13:27:37;32.20;1.00
14699;DHT22;7439;50.804;4.602;2023-05-31T13:30:07;32.00;1.00
14699;DHT22;7439;50.804;4.602;2023-05-31T13:32:34;31.80;1.00
14699;DHT22;7439;50.804;4.602;2023-05-31T13:35:02;32.40;1.00
14699;DHT22;7439;50.804;4.602;2023-05-31T13:37:30;31.90;1.00
14699;DHT22;7439;50.804;4.602;2023-05-31T13:39:57;31.80;1.00
14699;DHT22;7439;50.804;4.602;2023-05-31T13:42:24;31.80;1.00
14699;DHT22;7439;50.804;4.602;2023-05-31T13:44:53;32.10;1.00
14699;DHT22;7439;50.804;4.602;2023-05-31T13:47:20;32.50;1.00
14699;DHT22;7439;50.804;4.602;2023-05-31T13:49:47;33.00;1.00
14699;DHT22;7439;50.804;4.602;2023-05-31T13:52:15;33.20;1.00
14699;DHT22;7439;50.804;4.602;2023-05-31T13:54:42;33.20;1.00
14699;DHT22;7439;50.804;4.602;2023-05-31T13:57:09;33.30;1.00
14699;DHT22;7439;50.804;4.602;2023-05-31T13:59:36;33.30;1.00
14699;DHT22;7439;50.804;4.602;2023-05-31T14:02:05;32.90;1.00
14699;DHT22;7439;50.804;4.602;2023-05-31T14:04:32;32.00;1.00
14699;DHT22;7439;50.804;4.602;2023-05-31T14:07:00;30.90;1.00
14699;DHT22;7439;50.804;4.602;2023-05-31T14:09:29;29.80;1.00
14699;DHT22;7439;50.804;4.602;2023-05-31T14:11:56;29.20;1.00
14699;DHT22;7439;50.804;4.602;2023-05-31T14:14:24;28.90;1.00
14699;DHT22;7439;50.804;4.602;2023-05-31T14:16:52;28.60;1.00
14699;DHT22;7439;50.804;4.602;2023-05-31T14:19:20;28.30;1.00
14699;DHT22;7439;50.804;4.602;2023-05-31T14:21:47;27.90;1.00
14699;DHT22;7439;50.804;4.602;2023-05-31T14:24:15;27.30;1.00
14699;DHT22;7439;50.804;4.602;2023-05-31T14:26:42;27.10;1.00
14699;DHT22;7439;50.804;4.602;2023-05-31T14:29:09;26.60;1.00
14699;DHT22;7439;50.804;4.602;2023-05-31T14:31:36;26.40;1.00
14699;DHT22;7439;50.804;4.602;2023-05-31T14:34:04;26.30;1.00
14699;DHT22;7439;50.804;4.602;2023-05-31T14:36:32;26.30;1.00
14699;DHT22;7439;50.804;4.602;2023-05-31T14:39:00;26.10;1.00
14699;DHT22;7439;50.804;4.602;2023-05-31T14:41:27;26.00;1.00
14699;DHT22;7439;50.804;4.602;2023-05-31T14:43:54;25.80;1.00
14699;DHT22;7439;50.804;4.602;2023-05-31T14:46:22;25.80;1.00
14699;DHT22;7439;50.804;4.602;2023-05-31T14:48:49;25.70;1.00
14699;DHT22;7439;50.804;4.602;2023-05-31T14:51:16;25.60;1.00
14699;DHT22;7439;50.804;4.602;2023-05-31T14:53:45;25.50;1.00
14699;DHT22;7439;50.804;4.602;2023-05-31T14:56:12;25.50;1.00
14699;DHT22;7439;50.804;4.602;2023-05-31T14:58:39;25.50;1.00
14699;DHT22;7439;50.804;4.602;2023-05-31T15:01:08;25.50;1.00
14699;DHT22;7439;50.804;4.602;2023-05-31T15:03:35;25.50;1.00
14699;DHT22;7439;50.804;4.602;2023-05-31T15:06:02;25.50;1.00
14699;DHT22;7439;50.804;4.602;2023-05-31T15:08:30;25.50;1.00
14699;DHT22;7439;50.804;4.602;2023-05-31T15:10:58;25.40;1.00
14699;DHT22;7439;50.804;4.602;2023-05-31T15:13:25;25.40;1.00
14699;DHT22;7439;50.804;4.602;2023-05-31T15:15:53;25.30;1.00
14699;DHT22;7439;50.804;4.602;2023-05-31T15:18:20;25.30;1.00
14699;DHT22;7439;50.804;4.602;2023-05-31T15:20:48;25.20;1.00
14699;DHT22;7439;50.804;4.602;2023-05-31T15:23:15;25.20;1.00
14699;DHT22;7439;50.804;4.602;2023-05-31T15:25:42;25.10;1.00
14699;DHT22;7439;50.804;4.602;2023-05-31T15:28:11;24.90;1.00
14699;DHT22;7439;50.804;4.602;2023-05-31T15:30:38;24.90;1.00
14699;DHT22;7439;50.804;4.602;2023-05-31T15:33:05;25.00;1.00
14699;DHT22;7439;50.804;4.602;2023-05-31T15:35:33;25.10;1.00
14699;DHT22;7439;50.804;4.602;2023-05-31T15:38:00;25.00;1.00
14699;DHT22;7439;50.804;4.602;2023-05-31T15:40:27;24.90;1.00
14699;DHT22;7439;50.804;4.602;2023-05-31T15:42:54;24.90;1.00
14699;DHT22;7439;50.804;4.602;2023-05-31T15:45:23;24.90;1.00
14699;DHT22;7439;50.804;4.602;2023-05-31T15:47:50;25.00;1.00
14699;DHT22;7439;50.804;4.602;2023-05-31T15:50:17;25.10;1.00
14699;DHT22;7439;50.804;4.602;2023-05-31T15:52:44;25.00;1.00
14699;DHT22;7439;50.804;4.602;2023-05-31T15:55:11;25.00;1.00
14699;DHT22;7439;50.804;4.602;2023-05-31T15:57:38;25.00;1.00
14699;DHT22;7439;50.804;4.602;2023-05-31T16:00:07;25.00;1.00
14699;DHT22;7439;50.804;4.602;2023-05-31T16:02:36;25.00;1.00
14699;DHT22;7439;50.804;4.602;2023-05-31T16:05:03;24.90;1.00
14699;DHT22;7439;50.804;4.602;2023-05-31T16:07:31;24.80;1.00
14699;DHT22;7439;50.804;4.602;2023-05-31T16:09:58;24.70;1.00